Hartley, IA

5:10 PM CDT on July 27, 2016 (GMT -0500)
Downtown | | Change Station

Elev 1460 ft 43.18 °N, 95.48 °W | Updated 5 minutes ago

Partly Cloudy
Partly Cloudy
83.8 °F
Feels Like 88 °F
N
7.0
Wind Variable Wind from NW
Gusts 12.0 mph

Today
High -- | Low -- °F
--% Chance of Precip.
Yesterday
High -- | Low -- °F
Precip. -- in
Pressure 29.94 in
Visibility 10.0 miles
Clouds Few 4500 ft
Heat Index 88 °F
Dew Point 70 °F
Humidity 63%
Rainfall 0.00 in
Snow Depth Not available.
6:07 AM 8:48 PM
Last Quarter, 39% visible
METAR KSPW 272153Z AUTO 33007KT 10SM FEW045 29/21 A2996 RMK AO2 RAB24E32 SLP137 P0000 T02940206
Pressure 29.94 in
Visibility 10.0 miles
Clouds Few 4500 ft
Heat Index 88 °F
Dew Point 70 °F
Humidity 63%
Rainfall 0.00 in
Snow Depth Not available.
6:07 AM 8:48 PM
Last Quarter, 39% visible
METAR KSPW 272153Z AUTO 33007KT 10SM FEW045 29/21 A2996 RMK AO2 RAB24E32 SLP137 P0000 T02940206

10-Day Weather Forecast

Almanac

Astronomy

Jul. 27, 2016 Rise Set
Actual Time
Civil Twilight
Nautical Twilight
Astronomical Twilight
Moon
Length of Visible Light
Length of Day
Tomorrow will be .
, % of the Moon is Illuminated

Today's Extremes

State Highs State Lows

Community

WunderPhotos

Upload Photos

1,927,944 photos uploaded!

WunderBlog® & News

Nearby

Air Quality

  Air Quality AQ Index Pollutant
Not available.

Snow Depth

Station Depth Elevation

Earthquake Activity

City Distance Mag. Time & Date
Minimum magnitude displayed is 2.5.

Coastal Water Temperatures

Place Temperature

Stations

Nearby Weather Stations

Station Location Temp. Windchill Dew Point Humidity Wind Precip. Elev Updated Type
                   

Watches & Warnings

There are currently no watches in effect.